N420HE KBJC-KCMR
Flight info
| Callsign | N420HE |
|---|---|
| Flight time | 1h 19m |
| Altitude | 40000 |
| Route | ROCKI7 RLG |
| Aircraft | HDJT/L-SABDGRWY/H |
Departure
| Time | 2026-04-19 18:27 |
|---|---|
| Airport | Rocky Mountain Metropolitan Airport (KBJC) |
Arrival
| Time | 2026-04-19 19:46 |
|---|---|
| Airport | H.A. Clark Memorial Field (KCMR) |
| Time | Latitude | Longitude | Altitude | Speed | Heading |
|---|---|---|---|---|---|
| 2026-04-19 17:21 | 39.90826 | -105.11113 | 5610 ft | 0 kts | 303° |
| 2026-04-19 18:19 | 39.90832 | -105.11131 | 5610 ft | 5 kts | 272° |
| 2026-04-19 18:19 | 39.90804 | -105.11165 | 5608 ft | 7 kts | 221° |
| 2026-04-19 18:20 | 39.90804 | -105.11207 | 5608 ft | 4 kts | 305° |
| 2026-04-19 18:20 | 39.90820 | -105.11237 | 5609 ft | 6 kts | 302° |
| 2026-04-19 18:20 | 39.90854 | -105.11303 | 5614 ft | 12 kts | 304° |
| 2026-04-19 18:20 | 39.90905 | -105.11400 | 5612 ft | 14 kts | 304° |
| 2026-04-19 18:21 | 39.90961 | -105.11505 | 5618 ft | 13 kts | 304° |
| 2026-04-19 18:21 | 39.91004 | -105.11587 | 5616 ft | 9 kts | 303° |
| 2026-04-19 18:21 | 39.91042 | -105.11660 | 5617 ft | 10 kts | 305° |
| 2026-04-19 18:21 | 39.91085 | -105.11743 | 5617 ft | 13 kts | 305° |
| 2026-04-19 18:22 | 39.91134 | -105.11835 | 5620 ft | 11 kts | 304° |
| 2026-04-19 18:22 | 39.91185 | -105.11932 | 5623 ft | 15 kts | 304° |
| 2026-04-19 18:22 | 39.91256 | -105.12066 | 5626 ft | 21 kts | 304° |
| 2026-04-19 18:22 | 39.91341 | -105.12227 | 5635 ft | 20 kts | 304° |
| 2026-04-19 18:23 | 39.91385 | -105.12311 | 5640 ft | 8 kts | 304° |
| 2026-04-19 18:23 | 39.91412 | -105.12362 | 5643 ft | 5 kts | 305° |
| 2026-04-19 18:23 | 39.91425 | -105.12387 | 5645 ft | 1 kts | 302° |
| 2026-04-19 18:23 | 39.91435 | -105.12407 | 5647 ft | 8 kts | 305° |
| 2026-04-19 18:24 | 39.91495 | -105.12520 | 5655 ft | 19 kts | 305° |
| 2026-04-19 18:24 | 39.91566 | -105.12654 | 5661 ft | 16 kts | 304° |
| 2026-04-19 18:24 | 39.91601 | -105.12722 | 5665 ft | 4 kts | 302° |
| 2026-04-19 18:24 | 39.91607 | -105.12734 | 5665 ft | 2 kts | 301° |
| 2026-04-19 18:25 | 39.91587 | -105.12778 | 5663 ft | 10 kts | 214° |
| 2026-04-19 18:25 | 39.91535 | -105.12823 | 5662 ft | 8 kts | 211° |
| 2026-04-19 18:25 | 39.91517 | -105.12816 | 5666 ft | 5 kts | 114° |
| 2026-04-19 18:25 | 39.91487 | -105.12758 | 5663 ft | 10 kts | 124° |
| 2026-04-19 18:26 | 39.91473 | -105.12730 | 5661 ft | 0 kts | 127° |
| 2026-04-19 18:26 | 39.91343 | -105.12485 | 5646 ft | 76 kts | 124° |
| 2026-04-19 18:26 | 39.90890 | -105.11634 | 5620 ft | 147 kts | 125° |
| 2026-04-19 18:26 | 39.90278 | -105.10540 | 6152 ft | 151 kts | 121° |
| 2026-04-19 18:27 | 39.89752 | -105.09297 | 6694 ft | 165 kts | 118° |
| 2026-04-19 18:27 | 39.89210 | -105.07976 | 7433 ft | 165 kts | 119° |
| 2026-04-19 18:27 | 39.88855 | -105.06559 | 8178 ft | 167 kts | 101° |
| 2026-04-19 18:27 | 39.88651 | -105.05056 | 8863 ft | 173 kts | 102° |
| 2026-04-19 18:28 | 39.88404 | -105.03339 | 8963 ft | 216 kts | 102° |
| 2026-04-19 18:28 | 39.88233 | -105.01214 | 8984 ft | 258 kts | 88° |
| 2026-04-19 18:28 | 39.88767 | -104.98876 | 9392 ft | 275 kts | 56° |
| 2026-04-19 18:28 | 39.90141 | -104.97232 | 10523 ft | 265 kts | 27° |
| 2026-04-19 18:29 | 39.91880 | -104.96694 | 11639 ft | 255 kts | 355° |
| 2026-04-19 18:29 | 39.93557 | -104.97315 | 12508 ft | 250 kts | 324° |
| 2026-04-19 18:29 | 39.94695 | -104.98913 | 13488 ft | 238 kts | 295° |
| 2026-04-19 18:29 | 39.95158 | -105.00961 | 14410 ft | 237 kts | 275° |
| 2026-04-19 18:30 | 39.95106 | -105.03086 | 15244 ft | 239 kts | 269° |
| 2026-04-19 18:30 | 39.95054 | -105.05250 | 16089 ft | 240 kts | 272° |
| 2026-04-19 18:30 | 39.95133 | -105.07419 | 16959 ft | 239 kts | 276° |
| 2026-04-19 18:30 | 39.95251 | -105.09586 | 17789 ft | 241 kts | 276° |
| 2026-04-19 18:31 | 39.95342 | -105.11769 | 18595 ft | 242 kts | 275° |
| 2026-04-19 18:31 | 39.95419 | -105.13972 | 19363 ft | 245 kts | 275° |
| 2026-04-19 18:31 | 39.95504 | -105.16196 | 20115 ft | 247 kts | 276° |
| 2026-04-19 18:31 | 39.95594 | -105.18444 | 20849 ft | 249 kts | 276° |
| 2026-04-19 18:32 | 39.95682 | -105.20681 | 21562 ft | 252 kts | 276° |
| 2026-04-19 18:32 | 39.95769 | -105.22978 | 22268 ft | 255 kts | 276° |
| 2026-04-19 18:32 | 39.95858 | -105.25298 | 23001 ft | 258 kts | 276° |
| 2026-04-19 18:32 | 39.95947 | -105.27639 | 23700 ft | 260 kts | 276° |
| 2026-04-19 18:33 | 39.96038 | -105.30006 | 24342 ft | 263 kts | 276° |
| 2026-04-19 18:33 | 39.96127 | -105.32402 | 25009 ft | 266 kts | 276° |
| 2026-04-19 18:33 | 39.96219 | -105.34826 | 25629 ft | 269 kts | 276° |
| 2026-04-19 18:33 | 39.96310 | -105.37274 | 26218 ft | 272 kts | 276° |
| 2026-04-19 18:34 | 39.96402 | -105.39747 | 26794 ft | 275 kts | 276° |
| 2026-04-19 18:34 | 39.96493 | -105.42244 | 27348 ft | 277 kts | 276° |
| 2026-04-19 18:34 | 39.96586 | -105.44766 | 27869 ft | 280 kts | 276° |
| 2026-04-19 18:34 | 39.96681 | -105.47318 | 28258 ft | 288 kts | 276° |
| 2026-04-19 18:35 | 39.96781 | -105.50004 | 28279 ft | 306 kts | 276° |
| 2026-04-19 18:35 | 39.96882 | -105.52806 | 28293 ft | 321 kts | 276° |
| 2026-04-19 18:35 | 39.96986 | -105.55775 | 28301 ft | 334 kts | 275° |
| 2026-04-19 18:35 | 39.97093 | -105.58857 | 28318 ft | 345 kts | 275° |
| 2026-04-19 18:36 | 39.97206 | -105.62029 | 28326 ft | 355 kts | 275° |
| 2026-04-19 18:36 | 39.97438 | -105.68584 | 28353 ft | 368 kts | 275° |
| 2026-04-19 18:37 | 39.97726 | -105.75351 | 28366 ft | 378 kts | 275° |
| 2026-04-19 18:37 | 39.97994 | -105.82314 | 28372 ft | 385 kts | 275° |
| 2026-04-19 18:38 | 39.98268 | -105.89267 | 28375 ft | 388 kts | 275° |
| 2026-04-19 18:38 | 39.98539 | -105.96363 | 28377 ft | 390 kts | 275° |
| 2026-04-19 18:39 | 39.98807 | -106.03445 | 28372 ft | 392 kts | 275° |
| 2026-04-19 18:39 | 39.99071 | -106.10552 | 28364 ft | 393 kts | 275° |
| 2026-04-19 18:40 | 39.99332 | -106.17684 | 28352 ft | 394 kts | 275° |
| 2026-04-19 18:40 | 39.99587 | -106.24771 | 28338 ft | 394 kts | 275° |
| 2026-04-19 18:41 | 39.99840 | -106.31916 | 28328 ft | 395 kts | 275° |
| 2026-04-19 18:41 | 39.99500 | -106.39081 | 28320 ft | 400 kts | 262° |
| 2026-04-19 18:42 | 39.97682 | -106.45976 | 28322 ft | 407 kts | 248° |
| 2026-04-19 18:42 | 39.94426 | -106.52100 | 28322 ft | 418 kts | 232° |
| 2026-04-19 18:43 | 39.90366 | -106.57540 | 28321 ft | 418 kts | 231° |
| 2026-04-19 18:43 | 39.86316 | -106.62994 | 28323 ft | 420 kts | 231° |
| 2026-04-19 18:44 | 39.82237 | -106.68433 | 28321 ft | 419 kts | 231° |
| 2026-04-19 18:44 | 39.78167 | -106.73878 | 28322 ft | 419 kts | 231° |
| 2026-04-19 18:45 | 39.74097 | -106.79298 | 28321 ft | 419 kts | 230° |
| 2026-04-19 18:45 | 39.72124 | -106.81913 | 28322 ft | 394 kts | 231° |
| 2026-04-19 18:45 | 39.70217 | -106.84453 | 28316 ft | 394 kts | 231° |
| 2026-04-19 18:46 | 39.67027 | -106.88710 | 28317 ft | 395 kts | 230° |
| 2026-04-19 18:46 | 39.63176 | -106.93804 | 28315 ft | 396 kts | 230° |
| 2026-04-19 18:47 | 39.59332 | -106.98901 | 28314 ft | 395 kts | 230° |
| 2026-04-19 18:47 | 39.55477 | -107.03996 | 28322 ft | 395 kts | 230° |
| 2026-04-19 18:48 | 39.51628 | -107.09076 | 28342 ft | 395 kts | 230° |
| 2026-04-19 18:48 | 39.47775 | -107.14154 | 28358 ft | 395 kts | 230° |
| 2026-04-19 18:49 | 39.43916 | -107.19227 | 28379 ft | 395 kts | 230° |
| 2026-04-19 18:49 | 39.40086 | -107.24259 | 28403 ft | 395 kts | 230° |
| 2026-04-19 18:50 | 39.36223 | -107.29320 | 28417 ft | 395 kts | 230° |
| 2026-04-19 18:50 | 39.32335 | -107.34411 | 28415 ft | 395 kts | 230° |
| 2026-04-19 18:51 | 39.28472 | -107.39459 | 28416 ft | 395 kts | 229° |
| 2026-04-19 18:51 | 39.24603 | -107.44504 | 28403 ft | 395 kts | 229° |
| 2026-04-19 18:52 | 39.18822 | -107.52029 | 28377 ft | 395 kts | 229° |
| 2026-04-19 18:52 | 39.14950 | -107.57062 | 28364 ft | 395 kts | 229° |
| 2026-04-19 18:53 | 39.11066 | -107.62096 | 28354 ft | 396 kts | 229° |
| 2026-04-19 18:53 | 39.07187 | -107.67120 | 28336 ft | 395 kts | 229° |
| 2026-04-19 18:54 | 39.03310 | -107.72130 | 28326 ft | 395 kts | 229° |
| 2026-04-19 18:54 | 38.99428 | -107.77141 | 28272 ft | 395 kts | 229° |
| 2026-04-19 18:55 | 38.95541 | -107.82147 | 28271 ft | 396 kts | 229° |
| 2026-04-19 18:55 | 38.91650 | -107.87153 | 28271 ft | 395 kts | 229° |
| 2026-04-19 18:56 | 38.87760 | -107.92147 | 28271 ft | 395 kts | 229° |
| 2026-04-19 18:56 | 38.83868 | -107.97137 | 28264 ft | 396 kts | 229° |
| 2026-04-19 18:57 | 38.79972 | -108.02124 | 28264 ft | 396 kts | 228° |
| 2026-04-19 18:57 | 38.76072 | -108.07106 | 28263 ft | 396 kts | 228° |
| 2026-04-19 18:58 | 38.72172 | -108.12082 | 28264 ft | 396 kts | 228° |
| 2026-04-19 18:58 | 38.68269 | -108.17053 | 28263 ft | 396 kts | 228° |
| 2026-04-19 18:59 | 38.64392 | -108.21983 | 28265 ft | 395 kts | 228° |
| 2026-04-19 18:59 | 38.60490 | -108.26935 | 28270 ft | 395 kts | 228° |
| 2026-04-19 19:00 | 38.56589 | -108.31880 | 28271 ft | 395 kts | 228° |
| 2026-04-19 19:00 | 38.52677 | -108.36831 | 28273 ft | 395 kts | 228° |
| 2026-04-19 19:01 | 38.48766 | -108.41770 | 28273 ft | 395 kts | 228° |
| 2026-04-19 19:01 | 38.44856 | -108.46704 | 28286 ft | 395 kts | 228° |
| 2026-04-19 19:02 | 38.40942 | -108.51630 | 28287 ft | 395 kts | 228° |
| 2026-04-19 19:02 | 38.37030 | -108.56550 | 28314 ft | 395 kts | 228° |
| 2026-04-19 19:03 | 38.33113 | -108.61465 | 28323 ft | 395 kts | 228° |
| 2026-04-19 19:03 | 38.29194 | -108.66377 | 28322 ft | 396 kts | 227° |
| 2026-04-19 19:04 | 38.25267 | -108.71291 | 28323 ft | 396 kts | 227° |
| 2026-04-19 19:04 | 38.21341 | -108.76196 | 28323 ft | 395 kts | 227° |
| 2026-04-19 19:05 | 38.17409 | -108.81100 | 28323 ft | 396 kts | 227° |
| 2026-04-19 19:05 | 38.13472 | -108.86003 | 28310 ft | 396 kts | 227° |
| 2026-04-19 19:06 | 38.09564 | -108.90859 | 28308 ft | 395 kts | 227° |
| 2026-04-19 19:06 | 38.05634 | -108.95739 | 28308 ft | 395 kts | 227° |
| 2026-04-19 19:07 | 38.01699 | -109.00615 | 28316 ft | 395 kts | 227° |
| 2026-04-19 19:07 | 37.97764 | -109.05484 | 28315 ft | 395 kts | 227° |
| 2026-04-19 19:08 | 37.93829 | -109.10345 | 28315 ft | 394 kts | 227° |
| 2026-04-19 19:08 | 37.89902 | -109.15190 | 28323 ft | 394 kts | 227° |
| 2026-04-19 19:09 | 37.85962 | -109.20040 | 28323 ft | 395 kts | 227° |
| 2026-04-19 19:09 | 37.82023 | -109.24885 | 28321 ft | 395 kts | 227° |
| 2026-04-19 19:10 | 37.78079 | -109.29726 | 28322 ft | 395 kts | 227° |
| 2026-04-19 19:10 | 37.74134 | -109.34563 | 28320 ft | 395 kts | 227° |
| 2026-04-19 19:11 | 37.70184 | -109.39395 | 28309 ft | 395 kts | 227° |
| 2026-04-19 19:11 | 37.66232 | -109.44225 | 28286 ft | 396 kts | 227° |
| 2026-04-19 19:12 | 37.62279 | -109.49046 | 28284 ft | 395 kts | 227° |
| 2026-04-19 19:12 | 37.58327 | -109.53861 | 28280 ft | 395 kts | 227° |
| 2026-04-19 19:13 | 37.54364 | -109.58681 | 28281 ft | 395 kts | 227° |
| 2026-04-19 19:13 | 37.50405 | -109.63486 | 28281 ft | 395 kts | 227° |
| 2026-04-19 19:14 | 37.46444 | -109.68290 | 28283 ft | 395 kts | 227° |
| 2026-04-19 19:14 | 37.42483 | -109.73086 | 28277 ft | 395 kts | 227° |
| 2026-04-19 19:15 | 37.38517 | -109.77877 | 28272 ft | 395 kts | 227° |
| 2026-04-19 19:15 | 37.34577 | -109.82634 | 28264 ft | 395 kts | 227° |
| 2026-04-19 19:16 | 37.30612 | -109.87411 | 28264 ft | 395 kts | 227° |
| 2026-04-19 19:16 | 37.26642 | -109.92185 | 28254 ft | 395 kts | 227° |
| 2026-04-19 19:17 | 37.22676 | -109.96951 | 28256 ft | 395 kts | 226° |
| 2026-04-19 19:17 | 37.18706 | -110.01713 | 28246 ft | 395 kts | 226° |
| 2026-04-19 19:18 | 37.14730 | -110.06472 | 28245 ft | 395 kts | 226° |
| 2026-04-19 19:18 | 37.10753 | -110.11230 | 28246 ft | 395 kts | 226° |
| 2026-04-19 19:19 | 37.06772 | -110.15982 | 28246 ft | 395 kts | 226° |
| 2026-04-19 19:20 | 37.00807 | -110.23090 | 28234 ft | 394 kts | 226° |
| 2026-04-19 19:20 | 36.96830 | -110.27820 | 28234 ft | 394 kts | 225° |
| 2026-04-19 19:21 | 36.92855 | -110.32541 | 28234 ft | 394 kts | 225° |
| 2026-04-19 19:21 | 36.88876 | -110.37259 | 28234 ft | 394 kts | 225° |
| 2026-04-19 19:22 | 36.84893 | -110.41975 | 28235 ft | 395 kts | 225° |
| 2026-04-19 19:22 | 36.80906 | -110.46690 | 28236 ft | 395 kts | 225° |
| 2026-04-19 19:23 | 36.76916 | -110.51397 | 28236 ft | 395 kts | 225° |
| 2026-04-19 19:23 | 36.72929 | -110.56097 | 28235 ft | 394 kts | 225° |
| 2026-04-19 19:24 | 36.68943 | -110.60789 | 28218 ft | 394 kts | 225° |
| 2026-04-19 19:24 | 36.64955 | -110.65474 | 28218 ft | 394 kts | 225° |
| 2026-04-19 19:25 | 36.60961 | -110.70161 | 28218 ft | 394 kts | 225° |
| 2026-04-19 19:25 | 36.56965 | -110.74841 | 28217 ft | 394 kts | 225° |
| 2026-04-19 19:26 | 36.52971 | -110.79515 | 28218 ft | 394 kts | 225° |
| 2026-04-19 19:26 | 36.48977 | -110.84181 | 28209 ft | 394 kts | 224° |
| 2026-04-19 19:27 | 36.45646 | -110.88066 | 28209 ft | 395 kts | 224° |
| 2026-04-19 19:27 | 36.41640 | -110.92732 | 28208 ft | 395 kts | 224° |
| 2026-04-19 19:28 | 36.37636 | -110.97390 | 28208 ft | 394 kts | 224° |
| 2026-04-19 19:28 | 36.33625 | -111.02050 | 28209 ft | 395 kts | 224° |
| 2026-04-19 19:29 | 36.29613 | -111.06701 | 28209 ft | 395 kts | 224° |
| 2026-04-19 19:29 | 36.25603 | -111.11345 | 28208 ft | 394 kts | 224° |
| 2026-04-19 19:30 | 36.21580 | -111.15997 | 28209 ft | 395 kts | 224° |
| 2026-04-19 19:30 | 36.17595 | -111.20599 | 28208 ft | 394 kts | 224° |
| 2026-04-19 19:31 | 36.13574 | -111.25235 | 28208 ft | 395 kts | 223° |
| 2026-04-19 19:31 | 36.09552 | -111.29866 | 28207 ft | 396 kts | 223° |
| 2026-04-19 19:32 | 36.05518 | -111.34502 | 28208 ft | 396 kts | 223° |
| 2026-04-19 19:32 | 36.01489 | -111.39127 | 28208 ft | 396 kts | 223° |
| 2026-04-19 19:33 | 35.97458 | -111.43748 | 28207 ft | 395 kts | 223° |
| 2026-04-19 19:33 | 35.93433 | -111.48357 | 28213 ft | 395 kts | 223° |
| 2026-04-19 19:34 | 35.89401 | -111.52962 | 28222 ft | 395 kts | 223° |
| 2026-04-19 19:34 | 35.85371 | -111.57560 | 28222 ft | 394 kts | 223° |
| 2026-04-19 19:35 | 35.81339 | -111.62156 | 28223 ft | 395 kts | 222° |
| 2026-04-19 19:35 | 35.77303 | -111.66751 | 28222 ft | 395 kts | 222° |
| 2026-04-19 19:36 | 35.73264 | -111.71338 | 28222 ft | 395 kts | 222° |
| 2026-04-19 19:36 | 35.69220 | -111.75926 | 28222 ft | 395 kts | 222° |
| 2026-04-19 19:36 | 35.67244 | -111.78166 | 27729 ft | 391 kts | 222° |
| 2026-04-19 19:37 | 35.65245 | -111.80430 | 26985 ft | 389 kts | 222° |
| 2026-04-19 19:37 | 35.63239 | -111.82702 | 26229 ft | 385 kts | 222° |
| 2026-04-19 19:37 | 35.61299 | -111.84895 | 25493 ft | 381 kts | 222° |
| 2026-04-19 19:37 | 35.59354 | -111.87094 | 24742 ft | 378 kts | 222° |
| 2026-04-19 19:38 | 35.57427 | -111.89271 | 23996 ft | 374 kts | 222° |
| 2026-04-19 19:38 | 35.55518 | -111.91423 | 23246 ft | 371 kts | 222° |
| 2026-04-19 19:38 | 35.53629 | -111.93556 | 22507 ft | 366 kts | 222° |
| 2026-04-19 19:38 | 35.51761 | -111.95660 | 21755 ft | 363 kts | 222° |
| 2026-04-19 19:39 | 35.49903 | -111.97729 | 21007 ft | 358 kts | 219° |
| 2026-04-19 19:39 | 35.47853 | -111.99429 | 20252 ft | 354 kts | 217° |
| 2026-04-19 19:39 | 35.46162 | -112.01578 | 19521 ft | 351 kts | 236° |
| 2026-04-19 19:39 | 35.45228 | -112.04317 | 18766 ft | 350 kts | 257° |
| 2026-04-19 19:40 | 35.45179 | -112.07282 | 18016 ft | 351 kts | 278° |
| 2026-04-19 19:40 | 35.46023 | -112.10074 | 17275 ft | 351 kts | 300° |
| 2026-04-19 19:40 | 35.47627 | -112.12275 | 16548 ft | 340 kts | 321° |
| 2026-04-19 19:40 | 35.49501 | -112.13542 | 15811 ft | 281 kts | 335° |
| 2026-04-19 19:41 | 35.51323 | -112.14372 | 15064 ft | 283 kts | 339° |
| 2026-04-19 19:41 | 35.53041 | -112.15525 | 14316 ft | 283 kts | 315° |
| 2026-04-19 19:41 | 35.54165 | -112.17470 | 13576 ft | 280 kts | 289° |
| 2026-04-19 19:41 | 35.54452 | -112.19798 | 12837 ft | 277 kts | 262° |
| 2026-04-19 19:42 | 35.53851 | -112.22006 | 12103 ft | 274 kts | 236° |
| 2026-04-19 19:42 | 35.52565 | -112.23537 | 11376 ft | 245 kts | 208° |
| 2026-04-19 19:42 | 35.50997 | -112.24192 | 10636 ft | 234 kts | 190° |
| 2026-04-19 19:42 | 35.49413 | -112.24057 | 9897 ft | 229 kts | 160° |
| 2026-04-19 19:43 | 35.48038 | -112.23115 | 9160 ft | 226 kts | 147° |
| 2026-04-19 19:43 | 35.46772 | -112.22014 | 8645 ft | 218 kts | 144° |
| 2026-04-19 19:43 | 35.45525 | -112.20913 | 8528 ft | 222 kts | 145° |
| 2026-04-19 19:43 | 35.44273 | -112.19818 | 8412 ft | 220 kts | 145° |
| 2026-04-19 19:44 | 35.42989 | -112.18799 | 8406 ft | 220 kts | 153° |
| 2026-04-19 19:44 | 35.41592 | -112.18019 | 8389 ft | 221 kts | 157° |
| 2026-04-19 19:44 | 35.40125 | -112.17348 | 8105 ft | 225 kts | 164° |
| 2026-04-19 19:44 | 35.38642 | -112.17225 | 8086 ft | 209 kts | 187° |
| 2026-04-19 19:45 | 35.37248 | -112.17681 | 7913 ft | 201 kts | 195° |
| 2026-04-19 19:45 | 35.35951 | -112.18142 | 7627 ft | 184 kts | 192° |
| 2026-04-19 19:45 | 35.34775 | -112.18455 | 7401 ft | 169 kts | 188° |
| 2026-04-19 19:45 | 35.33677 | -112.18707 | 7186 ft | 153 kts | 188° |
| 2026-04-19 19:46 | 35.32682 | -112.18948 | 6938 ft | 137 kts | 186° |
| 2026-04-19 19:46 | 35.31807 | -112.19148 | 6758 ft | 119 kts | 187° |
| 2026-04-19 19:46 | 35.31044 | -112.19319 | 6650 ft | 104 kts | 189° |
| 2026-04-19 19:46 | 35.30487 | -112.19451 | 6650 ft | 30 kts | 191° |
| 2026-04-19 19:47 | 35.30424 | -112.19410 | 6650 ft | 9 kts | 125° |
| 2026-04-19 19:47 | 35.30390 | -112.19355 | 6649 ft | 7 kts | 128° |
| 2026-04-19 19:47 | 35.30336 | -112.19348 | 6650 ft | 10 kts | 192° |
| 2026-04-19 19:47 | 35.30263 | -112.19365 | 6647 ft | 5 kts | 189° |
| 2026-04-19 19:48 | 35.30238 | -112.19337 | 6652 ft | 6 kts | 97° |
| 2026-04-19 19:48 | 35.30202 | -112.19321 | 6651 ft | 8 kts | 191° |
| 2026-04-19 19:48 | 35.30147 | -112.19317 | 6652 ft | 7 kts | 112° |
| 2026-04-19 19:48 | 35.30131 | -112.19294 | 6653 ft | 0 kts | 227° |